Time;durP1;ratioP1;P1;durP2;ratioP2;P2;SDS_P1;SDS_P2;PMS_P1;PMS_P2;Temp;Humidity;BMP_temperature;BMP_pressure;BME280_temperature;BME280_humidity;BME280_pressure;Samples;Min_cycle;Max_cycle;Signal;HPM_P1;HPM_P2
2022/11/19 00:00:40;;;;;;;5.43;3.15;;;2.70;99.90;;;;;;5059157;28;20095;-82
2022/11/19 00:03:06;;;;;;;5.65;3.45;;;2.70;99.90;;;;;;5070701;28;20477;-83
2022/11/19 00:05:38;;;;;;;6.47;3.30;;;2.70;99.90;;;;;;5065679;28;20066;-82
2022/11/19 00:08:04;;;;;;;5.28;3.25;;;2.70;99.90;;;;;;5060264;28;20503;-83
2022/11/19 00:10:29;;;;;;;5.75;3.40;;;2.60;99.90;;;;;;5053840;28;20052;-82
2022/11/19 00:12:55;;;;;;;5.75;3.40;;;2.70;99.90;;;;;;5051326;28;20500;-83
2022/11/19 00:15:22;;;;;;;5.63;3.40;;;2.70;99.90;;;;;;5057259;28;20049;-86
2022/11/19 00:17:48;;;;;;;6.20;3.47;;;2.70;99.90;;;;;;5068607;28;20386;-81
2022/11/19 00:20:14;;;;;;;5.25;3.30;;;2.70;99.90;;;;;;5054858;28;20113;-84
2022/11/19 00:22:43;;;;;;;4.93;3.00;;;2.60;99.90;;;;;;5049764;28;20051;-83
2022/11/19 00:25:10;;;;;;;5.75;3.40;;;2.60;99.90;;;;;;5073903;28;20049;-83
2022/11/19 00:27:35;;;;;;;6.47;3.40;;;2.60;99.90;;;;;;5052620;28;20048;-83
2022/11/19 00:30:03;;;;;;;7.05;3.28;;;2.50;99.90;;;;;;5077704;28;20079;-83
2022/11/19 00:32:30;;;;;;;5.45;3.30;;;2.50;99.90;;;;;;5104906;28;20080;-83
2022/11/19 00:34:56;;;;;;;5.63;3.60;;;2.50;99.90;;;;;;5088033;28;20052;-83
2022/11/19 00:37:22;;;;;;;5.25;3.30;;;2.40;99.90;;;;;;5082490;28;20047;-82
2022/11/19 00:39:48;;;;;;;5.07;3.10;;;2.40;99.90;;;;;;5069008;28;20048;-83
2022/11/19 00:42:13;;;;;;;7.32;3.90;;;2.40;99.90;;;;;;5069073;28;20143;-82
2022/11/19 00:44:39;;;;;;;6.97;3.55;;;2.40;99.90;;;;;;5052770;28;20045;-82
2022/11/19 00:47:05;;;;;;;5.57;3.35;;;2.30;99.90;;;;;;5068926;28;20122;-82
2022/11/19 00:49:30;;;;;;;8.32;3.53;;;2.30;99.90;;;;;;5050600;28;20075;-82
2022/11/19 00:51:56;;;;;;;5.82;3.40;;;2.30;99.90;;;;;;5051396;28;20416;-82
2022/11/19 00:54:22;;;;;;;5.43;3.58;;;2.30;99.90;;;;;;5069600;28;20477;-82
2022/11/19 00:56:47;;;;;;;5.97;3.97;;;2.20;99.90;;;;;;5070224;28;20090;-82
2022/11/19 00:59:13;;;;;;;5.47;3.55;;;2.30;99.90;;;;;;5082849;28;20048;-82
2022/11/19 01:01:39;;;;;;;6.95;4.00;;;2.20;99.90;;;;;;5071958;28;20105;-83
2022/11/19 01:04:05;;;;;;;5.63;3.65;;;2.20;99.90;;;;;;5056478;28;20477;-82
2022/11/19 01:06:31;;;;;;;7.47;3.75;;;2.20;99.90;;;;;;5036880;28;20057;-82
2022/11/19 01:08:57;;;;;;;5.72;3.70;;;2.20;99.90;;;;;;5069577;28;20105;-82
2022/11/19 01:11:26;;;;;;;6.18;3.90;;;2.20;99.90;;;;;;5088134;28;20048;-82
2022/11/19 01:13:52;;;;;;;6.95;4.07;;;2.20;99.90;;;;;;5068645;28;20040;-82
2022/11/19 01:16:25;;;;;;;6.00;3.78;;;2.20;99.90;;;;;;5068868;28;20431;-84
2022/11/19 01:18:52;;;;;;;5.72;3.65;;;2.10;99.90;;;;;;5047063;28;20075;-82
2022/11/19 01:21:19;;;;;;;7.40;3.97;;;2.10;99.90;;;;;;5056515;28;20385;-82
2022/11/19 01:23:45;;;;;;;6.63;3.60;;;2.00;99.90;;;;;;5070637;28;20123;-82
2022/11/19 01:26:12;;;;;;;7.25;4.28;;;1.90;99.90;;;;;;5067902;28;20135;-82
2022/11/19 01:28:38;;;;;;;9.68;4.45;;;1.90;99.90;;;;;;5062967;28;20049;-82
2022/11/19 01:31:13;;;;;;;5.50;3.60;;;1.80;99.90;;;;;;5068956;28;20135;-83
2022/11/19 01:33:39;;;;;;;6.70;3.85;;;1.70;99.90;;;;;;5051729;28;20064;-82
2022/11/19 01:36:11;;;;;;;6.85;4.25;;;1.60;99.90;;;;;;5084677;28;20049;-82
2022/11/19 01:38:37;;;;;;;7.35;4.00;;;1.60;99.90;;;;;;5052188;28;20068;-82
2022/11/19 01:41:03;;;;;;;6.00;3.80;;;1.60;99.90;;;;;;5072766;28;20087;-82
2022/11/19 01:43:45;;;;;;;5.70;3.85;;;1.50;99.90;;;;;;5068216;28;20048;-82
2022/11/19 01:46:13;;;;;;;7.65;4.05;;;1.40;99.90;;;;;;5061967;28;20053;-82
2022/11/19 01:48:47;;;;;;;8.40;4.40;;;1.50;99.90;;;;;;5070623;28;20045;-82
2022/11/19 01:51:24;;;;;;;6.88;4.38;;;1.40;99.90;;;;;;5085625;28;20473;-82
2022/11/19 01:53:52;;;;;;;6.40;4.15;;;1.30;99.90;;;;;;5059090;28;20845;-82
2022/11/19 01:56:20;;;;;;;6.75;4.43;;;1.30;99.90;;;;;;5070730;28;20078;-82
2022/11/19 01:58:51;;;;;;;7.55;4.97;;;1.30;99.90;;;;;;5050469;28;20041;-82
2022/11/19 02:01:18;;;;;;;7.72;4.20;;;1.30;99.90;;;;;;5092432;28;20084;-82
2022/11/19 02:03:45;;;;;;;8.30;4.53;;;1.30;99.90;;;;;;5068145;28;20049;-82
2022/11/19 02:06:11;;;;;;;7.47;4.43;;;1.20;99.90;;;;;;5062154;28;20079;-83
2022/11/19 02:08:46;;;;;;;7.15;4.22;;;1.30;99.90;;;;;;5075261;28;20062;-83
2022/11/19 02:11:20;;;;;;;7.72;4.53;;;1.30;99.90;;;;;;5107460;28;20044;-83
2022/11/19 02:14:23;;;;;;;9.00;4.93;;;1.30;99.90;;;;;;5090471;28;20470;-83
2022/11/19 02:17:08;;;;;;;7.95;4.70;;;1.30;99.90;;;;;;5087761;28;20052;-83
2022/11/19 02:20:08;;;;;;;7.35;4.18;;;1.40;99.90;;;;;;5077457;28;20084;-84
2022/11/19 02:22:56;;;;;;;8.40;4.35;;;1.30;99.90;;;;;;5102371;28;20063;-84
2022/11/19 02:25:54;;;;;;;11.23;4.65;;;1.40;99.90;;;;;;5072315;28;20102;-82
2022/11/19 02:28:45;;;;;;;7.53;4.55;;;1.30;99.90;;;;;;5070800;28;20045;-83
2022/11/19 02:31:22;;;;;;;7.15;4.10;;;1.40;99.90;;;;;;5063044;28;20137;-83
2022/11/19 02:34:08;;;;;;;7.30;4.53;;;1.30;99.90;;;;;;5080114;28;20081;-83
2022/11/19 02:36:55;;;;;;;7.30;4.35;;;1.30;99.90;;;;;;5085171;28;20047;-85
2022/11/19 02:39:47;;;;;;;7.53;4.55;;;1.20;99.90;;;;;;5058904;28;20044;-82
2022/11/19 02:42:34;;;;;;;7.78;4.32;;;1.20;99.90;;;;;;5065488;28;20059;-83
2022/11/19 02:45:11;;;;;;;10.35;4.72;;;1.10;99.90;;;;;;5074528;28;20080;-83
2022/11/19 02:47:53;;;;;;;7.47;4.72;;;1.10;99.90;;;;;;5077034;28;20048;-84
2022/11/19 02:50:41;;;;;;;7.28;4.63;;;1.10;99.90;;;;;;5063466;28;20036;-83
2022/11/19 02:53:06;;;;;;;8.88;4.93;;;1.10;99.90;;;;;;5057378;28;20045;-83
2022/11/19 02:55:34;;;;;;;7.57;4.57;;;1.00;99.90;;;;;;5070936;28;20049;-84
2022/11/19 03:04:28;;;;;;;8.38;4.57;;;1.00;99.90;;;;;;5061848;28;20041;-82
2022/11/19 03:06:33;;;;;;;6.35;3.97;;;0.90;99.90;;;;;;5106525;28;20222;-83
2022/11/19 03:08:59;;;;;;;7.40;4.35;;;0.90;99.90;;;;;;5059812;28;20048;-83
2022/11/19 03:11:29;;;;;;;8.93;4.68;;;0.90;99.90;;;;;;5095987;28;20071;-82
2022/11/19 03:17:36;;;;;;;8.25;4.45;;;0.80;99.90;;;;;;5106595;28;20063;-82
2022/11/19 03:20:26;;;;;;;9.15;4.50;;;0.80;99.90;;;;;;5100860;28;20053;-83
2022/11/19 03:22:57;;;;;;;7.20;4.15;;;0.70;99.90;;;;;;5042066;28;20510;-82
2022/11/19 03:26:17;;;;;;;6.30;4.18;;;0.70;99.90;;;;;;5104457;28;20048;-82
2022/11/19 03:28:45;;;;;;;8.35;4.45;;;0.70;99.90;;;;;;5058713;28;20094;-83
2022/11/19 03:31:12;;;;;;;6.57;4.03;;;0.60;99.90;;;;;;5052611;28;20052;-83
2022/11/19 03:33:48;;;;;;;7.18;4.03;;;0.60;99.90;;;;;;5073510;28;20119;-82
2022/11/19 03:36:20;;;;;;;6.55;4.10;;;0.60;99.90;;;;;;5065749;28;20041;-82
2022/11/19 03:38:51;;;;;;;6.63;4.13;;;0.60;99.90;;;;;;5053124;28;20045;-83
2022/11/19 03:41:18;;;;;;;7.85;4.70;;;0.50;99.90;;;;;;5078512;28;20056;-83
2022/11/19 03:43:51;;;;;;;7.10;3.90;;;0.50;99.90;;;;;;5102315;28;20045;-83
2022/11/19 03:46:21;;;;;;;7.53;4.68;;;0.50;99.90;;;;;;5083018;28;20124;-84
2022/11/19 03:48:50;;;;;;;7.78;4.22;;;0.50;99.90;;;;;;5069310;28;20071;-82
2022/11/19 03:51:24;;;;;;;7.18;4.00;;;0.50;99.90;;;;;;5066539;28;20051;-82
2022/11/19 03:53:50;;;;;;;7.35;4.22;;;0.40;99.90;;;;;;5053237;28;20045;-82
2022/11/19 03:56:20;;;;;;;6.82;4.15;;;0.40;99.90;;;;;;5069467;28;20114;-82
2022/11/19 03:58:47;;;;;;;6.97;4.63;;;0.40;99.90;;;;;;5068137;28;20478;-82
2022/11/19 04:01:13;;;;;;;7.60;4.40;;;0.40;99.90;;;;;;5078988;28;20093;-82
2022/11/19 04:03:39;;;;;;;9.75;4.40;;;0.30;99.90;;;;;;5078737;28;20052;-82
2022/11/19 04:06:06;;;;;;;8.95;4.40;;;0.30;99.90;;;;;;5060031;28;20347;-82
2022/11/19 04:08:31;;;;;;;9.10;4.78;;;0.30;99.90;;;;;;5073614;28;20584;-82
2022/11/19 04:10:58;;;;;;;7.20;4.50;;;0.30;99.90;;;;;;5089329;28;20094;-82
2022/11/19 04:13:24;;;;;;;7.63;4.68;;;0.30;99.90;;;;;;5043556;28;20037;-82
2022/11/19 04:15:50;;;;;;;6.97;4.38;;;0.30;99.90;;;;;;5078000;28;20544;-82
2022/11/19 04:18:16;;;;;;;7.00;4.60;;;0.20;99.90;;;;;;5059660;28;20056;-83
2022/11/19 04:20:42;;;;;;;7.45;4.60;;;0.20;99.90;;;;;;5068986;28;20413;-83
2022/11/19 04:23:08;;;;;;;6.75;4.20;;;0.20;99.90;;;;;;5057905;28;20049;-83
2022/11/19 04:25:34;;;;;;;6.90;4.47;;;0.10;99.90;;;;;;5072260;28;20072;-84
2022/11/19 04:28:00;;;;;;;7.28;4.47;;;0.10;99.90;;;;;;5067986;28;20073;-82
2022/11/19 04:30:26;;;;;;;7.75;4.95;;;0.10;99.90;;;;;;5103262;28;20158;-82
2022/11/19 04:32:52;;;;;;;7.15;4.50;;;0.10;99.90;;;;;;5071460;28;20070;-82
2022/11/19 04:35:20;;;;;;;7.88;4.78;;;0.10;99.90;;;;;;5057476;28;20045;-82
2022/11/19 04:37:47;;;;;;;7.10;4.47;;;0.20;99.90;;;;;;5057116;28;20086;-82
2022/11/19 04:40:13;;;;;;;7.50;4.35;;;0.10;99.90;;;;;;5071339;28;20407;-81
2022/11/19 04:42:39;;;;;;;8.75;5.13;;;0.10;99.90;;;;;;5044882;28;20457;-82
2022/11/19 04:45:05;;;;;;;8.13;5.07;;;0.10;99.90;;;;;;5058983;28;20072;-82
2022/11/19 04:47:31;;;;;;;7.68;4.40;;;0.00;99.90;;;;;;5064893;28;20052;-82
2022/11/19 04:49:57;;;;;;;8.07;4.55;;;0.00;99.90;;;;;;5067387;28;20417;-82
2022/11/19 04:52:22;;;;;;;7.88;4.40;;;0.00;99.90;;;;;;5068315;28;20049;-82
2022/11/19 04:54:48;;;;;;;7.22;4.45;;;0.00;99.90;;;;;;5079579;28;20048;-82
2022/11/19 04:57:14;;;;;;;7.30;4.57;;;0.00;99.90;;;;;;5075865;28;20037;-82
2022/11/19 04:59:39;;;;;;;8.48;5.00;;;0.00;99.90;;;;;;5070312;28;20063;-82
2022/11/19 05:02:05;;;;;;;7.63;4.78;;;0.10;99.90;;;;;;5088173;28;20044;-82
2022/11/19 05:04:30;;;;;;;7.60;4.50;;;0.00;99.90;;;;;;5051337;28;20049;-82
2022/11/19 05:06:56;;;;;;;9.18;4.63;;;0.00;99.90;;;;;;5082805;28;20044;-83
2022/11/19 05:09:22;;;;;;;8.52;4.90;;;0.00;99.90;;;;;;5066813;28;20040;-82
2022/11/19 05:11:47;;;;;;;7.78;4.50;;;0.00;99.90;;;;;;5057580;28;20045;-82
2022/11/19 05:14:13;;;;;;;9.02;4.72;;;-0.10;99.90;;;;;;5085777;28;20037;-82
2022/11/19 05:16:39;;;;;;;7.07;4.50;;;-0.10;99.90;;;;;;5071103;28;20048;-81
2022/11/19 05:19:04;;;;;;;8.40;4.90;;;-0.10;99.90;;;;;;5062334;28;20118;-82
2022/11/19 05:21:30;;;;;;;8.73;5.35;;;-0.10;99.90;;;;;;5086964;28;20185;-81
2022/11/19 05:23:56;;;;;;;7.28;4.57;;;-0.10;99.90;;;;;;5082333;28;20041;-83
2022/11/19 05:26:23;;;;;;;7.90;4.78;;;-0.10;99.90;;;;;;5034425;28;20460;-82
2022/11/19 05:28:49;;;;;;;8.05;4.43;;;-0.10;99.90;;;;;;5081389;28;20052;-83
2022/11/19 05:31:14;;;;;;;8.90;5.07;;;-0.10;99.90;;;;;;5085685;28;20408;-83
2022/11/19 05:33:40;;;;;;;7.50;5.10;;;-0.10;99.90;;;;;;5085637;28;20044;-84
2022/11/19 05:36:06;;;;;;;7.45;4.63;;;-0.10;99.90;;;;;;5061794;28;20070;-83
2022/11/19 05:38:32;;;;;;;8.73;5.47;;;-0.10;99.90;;;;;;5063170;28;20044;-82
2022/11/19 05:40:57;;;;;;;9.23;5.32;;;-0.20;99.90;;;;;;5072211;28;20044;-83
2022/11/19 05:43:23;;;;;;;9.57;4.88;;;-0.20;99.90;;;;;;5078610;28;20098;-82
2022/11/19 05:45:49;;;;;;;9.45;5.30;;;-0.20;99.90;;;;;;5080781;28;20044;-83
2022/11/19 05:48:14;;;;;;;10.50;5.28;;;-0.20;99.90;;;;;;5038927;28;20132;-82
2022/11/19 05:50:41;;;;;;;8.40;5.43;;;-0.20;99.90;;;;;;5075315;28;20238;-82
2022/11/19 05:53:07;;;;;;;11.05;5.28;;;-0.20;99.90;;;;;;5074979;28;20048;-82
2022/11/19 05:55:33;;;;;;;9.57;5.50;;;-0.20;99.90;;;;;;5098542;28;20041;-82
2022/11/19 05:57:59;;;;;;;7.55;4.70;;;-0.30;99.90;;;;;;5073916;28;20113;-82
2022/11/19 06:00:25;;;;;;;8.48;4.82;;;-0.30;99.90;;;;;;5071457;28;20037;-82
2022/11/19 06:02:50;;;;;;;7.60;4.57;;;-0.30;99.90;;;;;;5077742;28;20045;-83
2022/11/19 06:05:16;;;;;;;8.27;4.80;;;-0.30;99.90;;;;;;5080089;28;20110;-82
2022/11/19 06:07:42;;;;;;;7.85;5.00;;;-0.30;99.90;;;;;;5081910;28;20523;-82
2022/11/19 06:10:08;;;;;;;8.80;5.57;;;-0.40;99.90;;;;;;5092096;28;20051;-82
2022/11/19 06:12:34;;;;;;;10.73;5.05;;;-0.30;99.90;;;;;;5057616;28;20103;-82
2022/11/19 06:15:00;;;;;;;8.25;5.13;;;-0.40;99.90;;;;;;5079205;28;20049;-82
2022/11/19 06:17:27;;;;;;;10.10;5.32;;;-0.40;99.90;;;;;;5081434;28;20397;-82
2022/11/19 06:19:53;;;;;;;9.13;5.68;;;-0.40;99.90;;;;;;5072427;28;20057;-83
2022/11/19 06:22:18;;;;;;;9.35;5.55;;;-0.30;99.90;;;;;;5079444;28;20503;-83
2022/11/19 06:24:44;;;;;;;9.07;5.45;;;-0.40;99.90;;;;;;5081601;28;20175;-83
2022/11/19 06:27:10;;;;;;;9.60;5.75;;;-0.40;99.90;;;;;;5078511;28;20127;-83
2022/11/19 06:29:35;;;;;;;11.68;6.18;;;-0.40;99.90;;;;;;5073736;28;20122;-82
2022/11/19 06:32:01;;;;;;;8.32;5.50;;;-0.50;99.90;;;;;;5054137;28;20390;-82
2022/11/19 06:34:27;;;;;;;9.15;5.65;;;-0.50;99.90;;;;;;5042270;28;20048;-83
2022/11/19 06:36:52;;;;;;;9.52;6.22;;;-0.40;99.90;;;;;;5091262;28;20507;-82
2022/11/19 06:39:18;;;;;;;8.45;5.57;;;-0.40;99.90;;;;;;5073244;28;20483;-83
2022/11/19 06:41:44;;;;;;;8.02;5.28;;;-0.50;99.90;;;;;;5077470;28;20048;-82
2022/11/19 06:44:09;;;;;;;10.23;5.97;;;-0.50;99.90;;;;;;5057513;28;20481;-82
2022/11/19 06:46:35;;;;;;;9.05;5.80;;;-0.50;99.90;;;;;;5082305;28;20059;-82
2022/11/19 06:49:02;;;;;;;8.88;5.30;;;-0.50;99.90;;;;;;5060891;28;20048;-83
2022/11/19 06:51:28;;;;;;;9.05;5.30;;;-0.50;99.90;;;;;;5062266;28;20045;-83
2022/11/19 06:53:53;;;;;;;9.23;6.00;;;-0.50;99.90;;;;;;5066562;28;20542;-83
2022/11/19 06:56:19;;;;;;;11.27;6.50;;;-0.50;99.90;;;;;;5099198;28;20533;-83
2022/11/19 06:58:45;;;;;;;11.70;5.95;;;-0.50;99.90;;;;;;5068948;28;20041;-82
2022/11/19 07:01:13;;;;;;;8.98;5.68;;;-0.50;99.90;;;;;;5079581;28;20503;-84
2022/11/19 07:03:38;;;;;;;9.35;5.93;;;-0.50;99.90;;;;;;5079504;28;20097;-83
2022/11/19 07:06:04;;;;;;;13.50;5.97;;;-0.50;99.90;;;;;;5072393;28;20041;-83
2022/11/19 07:08:33;;;;;;;10.23;5.80;;;-0.50;99.90;;;;;;5084647;28;20044;-83
2022/11/19 07:11:00;;;;;;;9.43;5.35;;;-0.60;99.90;;;;;;5069452;28;20044;-82
2022/11/19 07:13:55;;;;;;;11.80;5.82;;;-0.50;99.90;;;;;;5049451;28;20072;-84
2022/11/19 07:16:14;;;;;;;9.88;5.78;;;-0.60;99.90;;;;;;5086293;28;20053;-88
2022/11/19 07:18:39;;;;;;;10.52;5.95;;;-0.50;99.90;;;;;;5091268;28;20071;-81
2022/11/19 07:21:05;;;;;;;9.82;6.10;;;-0.50;99.90;;;;;;5037210;28;20044;-83
2022/11/19 07:23:31;;;;;;;11.07;6.25;;;-0.50;99.90;;;;;;5098433;27;20052;-80
2022/11/19 07:26:00;;;;;;;11.38;6.13;;;-0.50;99.90;;;;;;5060715;28;20056;-83
2022/11/19 07:28:26;;;;;;;10.98;6.22;;;-0.50;99.90;;;;;;5036188;28;20064;-82
2022/11/19 07:30:52;;;;;;;9.35;5.82;;;-0.50;99.90;;;;;;5078778;28;20058;-83
2022/11/19 07:33:17;;;;;;;8.68;5.65;;;-0.50;99.90;;;;;;5047120;28;20075;-82
2022/11/19 07:35:43;;;;;;;10.63;6.15;;;-0.50;99.90;;;;;;5070407;28;20044;-82
2022/11/19 07:38:09;;;;;;;10.65;5.93;;;-0.50;99.90;;;;;;5085453;28;20040;-83
2022/11/19 07:40:34;;;;;;;8.85;5.65;;;-0.50;99.90;;;;;;5109921;27;20545;-83
2022/11/19 07:43:00;;;;;;;9.32;5.68;;;-0.50;99.90;;;;;;5069029;28;20045;-83
2022/11/19 07:45:25;;;;;;;10.98;5.70;;;-0.60;99.90;;;;;;5089551;28;20380;-84
2022/11/19 07:47:51;;;;;;;10.93;5.80;;;-0.50;99.90;;;;;;5073116;28;20384;-83
2022/11/19 07:50:17;;;;;;;8.82;5.78;;;-0.40;99.90;;;;;;5066045;28;20109;-83
2022/11/19 07:52:43;;;;;;;7.70;5.25;;;-0.50;99.90;;;;;;5072261;28;20094;-83
2022/11/19 07:55:09;;;;;;;10.13;5.50;;;-0.50;99.90;;;;;;5088495;28;20049;-83
2022/11/19 07:57:35;;;;;;;9.15;5.43;;;-0.40;99.90;;;;;;5064798;28;20124;-83
2022/11/19 08:00:03;;;;;;;9.20;5.35;;;-0.40;99.90;;;;;;5069574;28;20052;-83
2022/11/19 08:02:29;;;;;;;8.55;5.43;;;-0.40;99.90;;;;;;5080812;28;20040;-82
2022/11/19 08:04:54;;;;;;;8.27;5.50;;;-0.40;99.90;;;;;;5090907;28;20158;-82
2022/11/19 08:07:20;;;;;;;10.48;5.80;;;-0.30;99.90;;;;;;5097757;28;20201;-83
2022/11/19 08:09:46;;;;;;;8.95;5.07;;;-0.30;99.90;;;;;;5072456;28;20041;-83
2022/11/19 08:12:11;;;;;;;9.90;5.72;;;-0.30;99.90;;;;;;5071225;28;20554;-83
2022/11/19 08:14:37;;;;;;;8.55;5.00;;;-0.20;99.90;;;;;;5072061;28;20039;-83
2022/11/19 08:19:49;;;;;;;9.23;5.00;;;-0.10;99.90;;;;;;5048240;28;20049;-83
2022/11/19 08:22:14;;;;;;;10.40;5.05;;;-0.10;99.90;;;;;;5064053;28;20060;-83
2022/11/19 08:24:40;;;;;;;9.07;5.47;;;0.00;99.90;;;;;;5085577;28;20103;-83
2022/11/19 08:27:06;;;;;;;9.55;5.22;;;0.00;99.90;;;;;;5069054;28;20059;-82
2022/11/19 08:29:31;;;;;;;9.75;5.03;;;0.10;99.90;;;;;;5076295;28;20055;-84
2022/11/19 08:31:57;;;;;;;7.57;4.80;;;0.10;99.90;;;;;;5090561;28;20127;-83
2022/11/19 08:34:23;;;;;;;7.43;4.88;;;0.20;99.90;;;;;;5110080;27;20041;-83
2022/11/19 08:36:48;;;;;;;9.30;5.68;;;0.20;99.90;;;;;;5071874;28;20045;-83
2022/11/19 08:39:14;;;;;;;8.90;5.10;;;0.30;99.90;;;;;;5088418;28;20110;-83
2022/11/19 08:44:24;;;;;;;8.82;4.88;;;0.40;99.90;;;;;;5064188;28;20506;-83
2022/11/19 08:46:49;;;;;;;9.15;4.97;;;0.40;99.90;;;;;;5075262;28;20044;-83
2022/11/19 08:49:15;;;;;;;9.30;5.03;;;0.50;99.90;;;;;;5091558;28;20055;-83
2022/11/19 08:51:41;;;;;;;8.10;5.15;;;0.50;99.90;;;;;;5072162;28;20048;-82
2022/11/19 08:54:07;;;;;;;7.03;4.43;;;0.70;99.90;;;;;;5045717;28;20045;-82
2022/11/19 08:56:33;;;;;;;8.77;4.90;;;0.60;99.90;;;;;;5086223;28;20476;-83
2022/11/19 08:58:58;;;;;;;7.93;4.78;;;0.60;99.90;;;;;;5051549;28;20123;-83
2022/11/19 09:01:24;;;;;;;8.43;4.63;;;0.60;99.90;;;;;;5034046;28;20049;-83
2022/11/19 09:03:50;;;;;;;8.27;4.68;;;0.70;99.90;;;;;;5071181;28;20067;-83
2022/11/19 09:06:16;;;;;;;10.45;5.78;;;0.70;99.90;;;;;;5097985;28;20044;-83
2022/11/19 09:08:42;;;;;;;7.85;4.55;;;0.80;99.90;;;;;;5088420;28;20044;-82
2022/11/19 09:11:14;;;;;;;7.15;4.65;;;0.80;99.90;;;;;;5071104;28;20097;-82
2022/11/19 09:13:40;;;;;;;8.35;4.85;;;0.80;99.90;;;;;;5054752;28;20114;-82
2022/11/19 09:16:07;;;;;;;9.25;5.45;;;0.80;99.90;;;;;;5071355;28;20052;-82
2022/11/19 09:18:34;;;;;;;8.75;5.25;;;0.90;99.90;;;;;;5070668;28;20553;-82
2022/11/19 09:21:00;;;;;;;8.05;4.78;;;0.90;99.90;;;;;;5053431;28;20097;-82
2022/11/19 09:23:26;;;;;;;7.57;5.03;;;1.00;99.90;;;;;;5054329;28;20045;-83
2022/11/19 09:25:59;;;;;;;7.45;4.88;;;1.00;99.90;;;;;;5071703;28;20051;-83
2022/11/19 09:28:26;;;;;;;7.28;4.70;;;1.10;99.90;;;;;;5037442;28;20056;-83
2022/11/19 09:31:01;;;;;;;7.68;4.65;;;1.20;99.90;;;;;;5061523;28;20493;-83
2022/11/19 09:33:29;;;;;;;8.57;5.25;;;1.20;99.90;;;;;;5072391;28;20127;-83
2022/11/19 09:35:54;;;;;;;8.32;4.72;;;1.20;99.90;;;;;;5055344;28;20071;-83
2022/11/19 09:38:20;;;;;;;9.45;4.80;;;1.30;99.90;;;;;;5053708;28;20481;-82
2022/11/19 09:40:51;;;;;;;8.50;5.30;;;1.40;99.90;;;;;;5068115;28;20123;-83
2022/11/19 09:43:51;;;;;;;7.38;4.53;;;1.50;99.90;;;;;;5070974;28;20072;-83
2022/11/19 09:46:32;;;;;;;7.47;4.78;;;1.60;99.90;;;;;;5058574;28;20060;-84
2022/11/19 09:49:04;;;;;;;7.82;4.38;;;1.70;99.90;;;;;;5092033;28;20388;-82
2022/11/19 09:51:32;;;;;;;7.80;5.30;;;1.70;99.90;;;;;;5089729;28;20445;-88
2022/11/19 09:54:11;;;;;;;7.45;4.85;;;1.80;99.90;;;;;;5086105;28;20377;-84
2022/11/19 09:56:43;;;;;;;7.53;4.78;;;1.90;99.90;;;;;;5057203;28;20477;-83
2022/11/19 09:59:29;;;;;;;8.70;5.10;;;1.90;99.90;;;;;;5067406;28;20060;-82
2022/11/19 10:01:56;;;;;;;7.65;4.72;;;2.00;99.90;;;;;;5051655;28;20053;-85
2022/11/19 10:04:25;;;;;;;9.40;5.05;;;2.10;99.90;;;;;;5050766;28;20090;-85
2022/11/19 10:07:17;;;;;;;7.93;4.97;;;2.10;99.90;;;;;;5068839;28;20069;-84
2022/11/19 10:09:46;;;;;;;7.68;4.93;;;2.20;99.90;;;;;;5078595;28;20094;-84
2022/11/19 10:12:22;;;;;;;8.27;5.20;;;2.20;99.90;;;;;;5052428;28;20157;-84
2022/11/19 10:15:06;;;;;;;;;;;2.30;99.90;;;;;;5067923;28;20087;-83
2022/11/19 10:17:50;;;;;;;7.85;4.78;;;2.40;99.90;;;;;;5074185;28;19920;-83
2022/11/19 10:20:54;;;;;;;7.32;4.80;;;2.50;99.90;;;;;;5052348;28;20127;-81
2022/11/19 10:23:30;;;;;;;9.13;4.90;;;2.50;99.90;;;;;;5091572;28;20045;-83
2022/11/19 10:26:05;;;;;;;7.38;4.32;;;2.50;99.90;;;;;;5065140;28;20129;-82
2022/11/19 10:28:37;;;;;;;7.20;4.10;;;2.60;99.90;;;;;;5074063;28;20060;-83
2022/11/19 10:31:34;;;;;;;8.32;4.72;;;2.70;99.90;;;;;;5075743;28;20051;-82
2022/11/19 10:34:24;;;;;;;7.38;4.45;;;2.70;99.90;;;;;;5069716;28;20434;-79
2022/11/19 10:37:14;;;;;;;7.53;3.97;;;2.80;99.90;;;;;;5057632;28;20045;-82
2022/11/19 10:39:57;;;;;;;7.10;4.32;;;2.90;99.90;;;;;;5054162;28;20045;-82
2022/11/19 10:42:43;;;;;;;7.80;4.80;;;3.00;99.90;;;;;;5087629;28;20057;-79
2022/11/19 10:45:26;;;;;;;9.68;5.25;;;3.00;99.90;;;;;;5055054;28;20044;-80
2022/11/19 10:48:10;;;;;;;7.25;4.82;;;3.20;99.90;;;;;;5068994;28;20052;-78
2022/11/19 10:50:36;;;;;;;7.40;4.50;;;3.30;99.90;;;;;;5074662;28;20053;-80
2022/11/19 10:53:11;;;;;;;9.63;5.75;;;3.50;99.90;;;;;;5058667;28;20040;-81
2022/11/19 10:55:42;;;;;;;;;;;3.40;99.90;;;;;;5071228;28;20045;-84
2022/11/19 10:58:23;;;;;;;7.47;4.57;;;3.50;99.90;;;;;;5070467;28;20429;-85
2022/11/19 11:00:52;;;;;;;7.20;4.47;;;3.70;99.90;;;;;;5050710;28;20048;-82
2022/11/19 11:03:25;;;;;;;7.25;4.50;;;4.30;99.90;;;;;;5073192;28;20048;-81
2022/11/19 11:06:02;;;;;;;7.32;3.90;;;4.90;99.90;;;;;;5059170;28;20411;-82
2022/11/19 11:08:28;;;;;;;5.88;4.10;;;5.60;99.90;;;;;;5072643;28;20047;-83
2022/11/19 11:10:54;;;;;;;6.88;4.05;;;6.10;99.90;;;;;;5055378;28;20047;-81
2022/11/19 11:16:40;;;;;;;6.18;4.15;;;6.90;99.90;;;;;;5073290;28;20066;-83
2022/11/19 11:19:13;;;;;;;8.05;4.72;;;7.00;99.90;;;;;;5070700;28;20404;-83
2022/11/19 11:21:41;;;;;;;7.95;4.43;;;7.00;99.90;;;;;;5073177;28;20048;-84
2022/11/19 11:24:08;;;;;;;8.05;4.93;;;7.00;99.90;;;;;;5071700;28;20106;-85
2022/11/19 11:26:36;;;;;;;8.48;4.13;;;7.20;99.90;;;;;;5055138;28;20122;-85
2022/11/19 11:29:24;;;;;;;5.93;3.92;;;7.30;99.90;;;;;;5071981;28;20086;-85
2022/11/19 11:31:50;;;;;;;8.00;4.35;;;7.50;99.90;;;;;;5072108;28;20044;-84
2022/11/19 11:34:24;;;;;;;5.97;3.78;;;7.70;99.90;;;;;;5075469;28;20046;-82
2022/11/19 11:36:51;;;;;;;5.78;3.65;;;7.90;99.90;;;;;;5092764;28;20142;-82
2022/11/19 11:39:36;;;;;;;5.80;4.00;;;8.00;99.90;;;;;;5074387;28;20048;-87
2022/11/19 11:42:03;;;;;;;5.38;3.65;;;8.20;99.90;;;;;;5072016;28;20090;-85
2022/11/19 11:44:34;;;;;;;6.45;4.13;;;8.30;99.90;;;;;;5071090;28;20063;-83
2022/11/19 11:47:13;;;;;;;6.88;4.15;;;8.20;99.90;;;;;;5071598;28;20109;-83
2022/11/19 11:49:56;;;;;;;6.15;3.63;;;8.40;99.90;;;;;;5071325;28;20040;-84
2022/11/19 11:52:32;;;;;;;5.28;3.50;;;8.60;99.90;;;;;;5055501;28;20048;-84
2022/11/19 11:54:59;;;;;;;6.03;3.47;;;8.70;99.90;;;;;;5055100;28;20377;-83
2022/11/19 11:57:26;;;;;;;6.25;3.40;;;8.90;99.90;;;;;;5054328;28;20048;-82
2022/11/19 11:59:52;;;;;;;5.63;3.60;;;9.20;99.90;;;;;;5091192;28;20060;-81
2022/11/19 12:02:30;;;;;;;5.22;3.35;;;9.30;99.90;;;;;;5090276;28;20055;-82
2022/11/19 12:05:02;;;;;;;4.93;3.42;;;9.30;99.90;;;;;;5053557;28;20056;-82
2022/11/19 12:07:58;;;;;;;6.35;3.45;;;9.60;99.90;;;;;;5086236;28;20529;-85
2022/11/19 12:11:06;;;;;;;5.97;3.72;;;9.60;99.90;;;;;;5067815;28;20075;-83
2022/11/19 12:13:46;;;;;;;;;;;9.70;99.90;;;;;;5066455;28;20135;-83
2022/11/19 12:16:31;;;;;;;6.85;3.10;;;9.50;99.90;;;;;;5040986;28;19924;-83
2022/11/19 12:18:59;;;;;;;5.60;3.45;;;9.80;99.90;;;;;;5051191;28;20060;-83
2022/11/19 12:21:46;;;;;;;8.00;4.00;;;9.90;99.90;;;;;;5072072;28;20057;-83
2022/11/19 12:24:24;;;;;;;5.32;3.38;;;9.80;99.90;;;;;;5070621;28;20122;-82
2022/11/19 12:27:17;;;;;;;5.18;3.33;;;9.40;99.90;;;;;;5069352;28;20052;-82
2022/11/19 12:29:55;;;;;;;6.30;3.20;;;9.20;99.90;;;;;;5070833;28;20049;-83
2022/11/19 12:32:42;;;;;;;5.53;3.42;;;9.10;99.90;;;;;;5054678;28;20053;-82
2022/11/19 12:35:14;;;;;;;5.55;3.15;;;9.00;99.90;;;;;;5053845;28;20056;-81
2022/11/19 12:38:35;;;;;;;5.20;3.35;;;9.10;99.90;;;;;;5080580;28;20063;-83
2022/11/19 12:41:21;;;;;;;5.28;2.70;;;9.10;99.90;;;;;;5057095;28;20060;-82
2022/11/19 12:43:50;;;;;;;4.30;2.70;;;9.30;99.90;;;;;;5089193;28;20087;-82
2022/11/19 12:46:35;;;;;;;5.18;3.13;;;9.70;99.90;;;;;;5090643;28;20801;-83
2022/11/19 12:49:03;;;;;;;5.72;3.13;;;10.30;99.90;;;;;;5086702;28;20485;-82
2022/11/19 12:52:01;;;;;;;5.88;3.00;;;10.90;99.90;;;;;;5054127;28;20041;-84
2022/11/19 12:54:46;;;;;;;5.25;3.25;;;11.40;99.90;;;;;;5053422;28;20093;-83
2022/11/19 12:57:36;;;;;;;5.72;3.10;;;11.50;99.90;;;;;;5050374;28;20092;-83
2022/11/19 13:00:11;;;;;;;6.45;3.22;;;11.80;99.90;;;;;;5070152;28;20385;-83
2022/11/19 13:02:47;;;;;;;4.60;2.90;;;11.90;99.90;;;;;;5071228;28;20075;-83
2022/11/19 13:05:23;;;;;;;4.90;2.97;;;11.80;99.90;;;;;;5066456;28;20158;-85
2022/11/19 13:07:58;;;;;;;4.35;2.60;;;11.40;99.90;;;;;;5076789;28;20127;-83
2022/11/19 13:10:34;;;;;;;4.90;2.80;;;11.40;99.90;;;;;;5068094;28;20048;-83
2022/11/19 13:13:03;;;;;;;5.60;3.15;;;11.60;99.90;;;;;;5069582;28;20067;-84
2022/11/19 13:15:38;;;;;;;5.13;2.80;;;11.80;99.90;;;;;;5053718;28;20477;-84
2022/11/19 13:18:11;;;;;;;4.57;2.53;;;12.00;99.90;;;;;;5065337;28;20044;-83
2022/11/19 13:20:50;;;;;;;5.20;2.83;;;12.00;99.90;;;;;;5065927;28;20049;-83
2022/11/19 13:23:29;;;;;;;4.97;2.92;;;12.30;99.90;;;;;;5084070;28;20053;-82
2022/11/19 13:26:03;;;;;;;4.95;2.83;;;12.50;99.90;;;;;;5052633;28;20063;-84
2022/11/19 13:28:42;;;;;;;4.75;3.00;;;12.90;99.90;;;;;;5069819;28;20052;-82
2022/11/19 13:31:36;;;;;;;5.57;2.60;;;12.80;99.70;;;;;;5052864;28;20048;-83